Time;durP1;ratioP1;P1;durP2;ratioP2;P2;SDS_P1;SDS_P2;PMS_P1;PMS_P2;Temp;Humidity;BMP_temperature;BMP_pressure;BME280_temperature;BME280_humidity;BME280_pressure;Samples;Min_cycle;Max_cycle;Signal;HPM_P1;HPM_P2
2022/05/16 00:00:34;;;;;;;4.22;1.90;;;18.80;68.90;;;;;;5091581;28;20028;-72
2022/05/16 00:03:01;;;;;;;2.25;1.50;;;18.80;69.40;;;;;;5083962;28;20040;-73
2022/05/16 00:05:27;;;;;;;5.25;2.53;;;18.80;70.80;;;;;;5091558;28;20028;-72
2022/05/16 00:07:53;;;;;;;4.40;1.75;;;18.80;73.90;;;;;;5073916;28;20023;-72
2022/05/16 00:10:19;;;;;;;4.13;2.20;;;18.70;74.40;;;;;;5074012;28;20496;-72
2022/05/16 00:12:46;;;;;;;6.00;2.67;;;18.60;75.70;;;;;;5091880;28;20020;-72
2022/05/16 00:15:14;;;;;;;4.32;2.50;;;18.50;76.30;;;;;;5086935;28;20130;-73
2022/05/16 00:17:40;;;;;;;5.40;2.20;;;18.40;76.80;;;;;;5078134;28;20024;-73
2022/05/16 00:20:07;;;;;;;6.05;1.83;;;18.40;77.30;;;;;;5086876;28;20157;-72
2022/05/16 00:22:33;;;;;;;5.63;2.33;;;18.30;77.90;;;;;;5078870;28;20043;-72
2022/05/16 00:24:59;;;;;;;5.22;1.85;;;18.20;78.40;;;;;;5073225;28;20024;-73
2022/05/16 00:27:25;;;;;;;3.92;1.90;;;18.20;78.70;;;;;;5086171;28;20051;-73
2022/05/16 00:29:50;;;;;;;3.42;2.35;;;18.10;78.90;;;;;;5089861;28;20052;-73
2022/05/16 00:32:17;;;;;;;6.28;2.55;;;18.10;79.40;;;;;;5090460;28;20024;-73
2022/05/16 00:34:43;;;;;;;8.38;2.97;;;18.00;80.00;;;;;;5091000;28;20430;-73
2022/05/16 00:37:08;;;;;;;3.70;2.63;;;18.00;80.50;;;;;;5087858;28;20039;-73
2022/05/16 00:39:34;;;;;;;7.35;3.60;;;17.90;81.10;;;;;;5067478;28;20535;-72
2022/05/16 00:42:01;;;;;;;3.78;2.65;;;17.90;82.10;;;;;;5061339;28;20107;-73
2022/05/16 00:44:28;;;;;;;4.78;3.20;;;17.80;82.40;;;;;;5074202;28;20036;-72
2022/05/16 00:46:54;;;;;;;4.68;2.53;;;17.70;82.80;;;;;;5090671;28;20023;-72
2022/05/16 00:49:34;;;;;;;5.05;3.17;;;17.70;83.30;;;;;;5075770;28;20538;-72
2022/05/16 00:52:12;;;;;;;2.83;2.47;;;17.60;83.70;;;;;;5091025;28;20377;-72
2022/05/16 00:54:44;;;;;;;6.53;3.38;;;17.60;84.20;;;;;;5081128;28;20024;-73
2022/05/16 00:57:13;;;;;;;5.85;3.45;;;17.60;85.00;;;;;;5083584;28;20082;-72
2022/05/16 01:00:00;;;;;;;4.45;3.05;;;17.50;85.10;;;;;;5072921;28;20042;-72
2022/05/16 01:05:12;;;;;;;4.30;2.65;;;17.50;84.60;;;;;;5096784;28;20035;-71
2022/05/16 01:07:41;;;;;;;7.93;2.80;;;17.50;85.00;;;;;;5095058;28;20025;-72
2022/05/16 01:10:10;;;;;;;7.35;2.42;;;17.40;85.60;;;;;;5076608;28;20016;-71
2022/05/16 01:12:40;;;;;;;5.88;2.13;;;17.40;85.60;;;;;;5088565;28;20388;-74
2022/05/16 01:15:10;;;;;;;2.78;2.00;;;17.40;85.30;;;;;;5085847;28;20154;-74
2022/05/16 01:17:37;;;;;;;6.45;1.92;;;17.40;84.50;;;;;;5091970;28;20035;-73
2022/05/16 01:20:04;;;;;;;2.63;1.50;;;17.40;83.30;;;;;;5084673;28;20035;-74
2022/05/16 01:22:38;;;;;;;3.92;1.95;;;17.30;82.60;;;;;;5082014;28;20033;-73
2022/05/16 01:25:17;;;;;;;3.72;1.90;;;17.40;82.80;;;;;;5082004;28;20023;-72
2022/05/16 01:27:55;;;;;;;3.42;1.95;;;17.40;82.50;;;;;;5072116;28;20039;-72
2022/05/16 01:30:33;;;;;;;4.68;1.88;;;17.40;82.60;;;;;;5046274;28;1146567;-72
2022/05/16 01:32:59;;;;;;;3.67;2.10;;;17.40;82.60;;;;;;5059675;28;20020;-72
2022/05/16 01:35:28;;;;;;;3.20;1.65;;;17.50;82.60;;;;;;5074319;28;20370;-73
2022/05/16 01:40:38;;;;;;;3.38;1.40;;;17.50;82.50;;;;;;5074692;28;20119;-72
2022/05/16 01:43:05;;;;;;;4.05;2.00;;;17.50;82.00;;;;;;5075574;28;20268;-73
2022/05/16 01:45:31;;;;;;;2.55;1.65;;;17.50;82.10;;;;;;5073266;28;20427;-73
2022/05/16 01:47:57;;;;;;;2.72;1.52;;;17.60;82.10;;;;;;5090323;28;20054;-73
2022/05/16 01:50:23;;;;;;;2.30;1.73;;;17.60;82.10;;;;;;5056283;28;20056;-72
2022/05/16 01:52:48;;;;;;;2.17;1.50;;;17.70;82.10;;;;;;5074143;28;20062;-72
2022/05/16 01:55:14;;;;;;;2.20;1.65;;;17.70;82.20;;;;;;5094633;28;20027;-73
2022/05/16 01:57:40;;;;;;;3.75;1.45;;;17.90;82.30;;;;;;5089146;28;20545;-72
2022/05/16 02:00:09;;;;;;;2.60;1.52;;;17.90;82.00;;;;;;5093416;28;20027;-72
2022/05/16 02:02:36;;;;;;;3.53;1.27;;;18.00;82.00;;;;;;5093993;28;20484;-72
2022/05/16 02:05:03;;;;;;;2.20;1.55;;;18.10;82.00;;;;;;5091418;28;20487;-72
2022/05/16 02:07:28;;;;;;;4.20;1.40;;;18.10;82.00;;;;;;5094034;28;20385;-72
2022/05/16 02:09:54;;;;;;;3.92;1.60;;;18.20;82.10;;;;;;5092278;28;20016;-72
2022/05/16 02:12:20;;;;;;;3.53;1.77;;;18.20;82.30;;;;;;5087965;28;20052;-72
2022/05/16 02:14:46;;;;;;;6.80;2.22;;;18.20;82.30;;;;;;5093023;28;20028;-72
2022/05/16 02:17:12;;;;;;;2.28;1.33;;;18.30;82.70;;;;;;5093693;28;20036;-72
2022/05/16 02:19:37;;;;;;;3.70;1.88;;;18.30;82.70;;;;;;5070308;28;20086;-74
2022/05/16 02:24:47;;;;;;;;;;;18.30;82.90;;;;;;5091873;28;20108;-72
2022/05/16 02:27:16;;;;;;;2.90;1.73;;;18.30;83.10;;;;;;5093682;28;19940;-72
2022/05/16 02:29:42;;;;;;;2.25;1.58;;;18.30;83.60;;;;;;5090553;28;20080;-73
2022/05/16 02:32:08;;;;;;;2.30;1.70;;;18.30;83.60;;;;;;5067682;28;20028;-73
2022/05/16 02:34:34;;;;;;;2.97;2.03;;;18.30;83.70;;;;;;5067172;28;20389;-72
2022/05/16 02:37:00;;;;;;;3.90;1.67;;;18.30;83.70;;;;;;5066288;28;20046;-74
2022/05/16 02:39:26;;;;;;;2.40;1.50;;;18.30;83.90;;;;;;5084150;28;20031;-73
2022/05/16 02:41:52;;;;;;;3.63;1.73;;;18.40;84.00;;;;;;5091835;28;20023;-73
2022/05/16 02:44:18;;;;;;;2.35;1.25;;;18.50;84.00;;;;;;5093345;28;20388;-72
2022/05/16 02:46:44;;;;;;;2.85;1.67;;;18.50;84.10;;;;;;5074785;28;20401;-72
2022/05/16 02:49:10;;;;;;;3.03;2.03;;;18.50;84.10;;;;;;5055074;28;20025;-72
2022/05/16 02:51:36;;;;;;;3.60;1.85;;;18.50;84.30;;;;;;5055354;28;20143;-73
2022/05/16 02:54:03;;;;;;;3.78;1.58;;;18.50;84.20;;;;;;5073164;28;20021;-73
2022/05/16 02:56:29;;;;;;;5.53;1.75;;;18.60;84.30;;;;;;5073042;28;20393;-73
2022/05/16 02:58:54;;;;;;;2.72;1.75;;;18.60;84.40;;;;;;5072917;28;20025;-75
2022/05/16 03:01:20;;;;;;;3.67;1.70;;;18.60;84.40;;;;;;5079052;28;20042;-74
2022/05/16 03:03:46;;;;;;;2.78;1.73;;;18.60;84.40;;;;;;5087056;28;20023;-74
2022/05/16 03:06:12;;;;;;;5.10;1.90;;;18.60;84.70;;;;;;5072741;28;20028;-72
2022/05/16 03:08:38;;;;;;;3.25;1.90;;;18.60;84.70;;;;;;5072774;28;20028;-73
2022/05/16 03:11:06;;;;;;;5.82;1.67;;;18.60;84.90;;;;;;5082624;28;20103;-72
2022/05/16 03:13:31;;;;;;;2.90;1.90;;;18.60;85.10;;;;;;5087571;28;20024;-73
2022/05/16 03:15:58;;;;;;;3.85;1.75;;;18.60;85.20;;;;;;5090077;28;20419;-72
2022/05/16 03:18:24;;;;;;;3.40;2.35;;;18.60;85.40;;;;;;5074205;28;20039;-72
2022/05/16 03:20:51;;;;;;;3.95;2.47;;;18.60;85.80;;;;;;5069080;28;20028;-73
2022/05/16 03:23:17;;;;;;;4.13;2.03;;;18.60;86.00;;;;;;5092160;28;20016;-72
2022/05/16 03:25:42;;;;;;;3.35;2.40;;;18.50;86.30;;;;;;5084857;28;20059;-72
2022/05/16 03:28:08;;;;;;;3.45;2.20;;;18.50;86.60;;;;;;5081621;28;20499;-72
2022/05/16 03:30:35;;;;;;;4.20;2.47;;;18.50;86.80;;;;;;5072510;28;20166;-73
2022/05/16 03:33:00;;;;;;;2.22;1.50;;;18.40;87.10;;;;;;5084572;28;20039;-73
2022/05/16 03:35:26;;;;;;;2.58;1.65;;;18.50;87.50;;;;;;5072083;28;20031;-72
2022/05/16 03:37:52;;;;;;;2.80;2.35;;;18.50;87.70;;;;;;5078517;28;20032;-72
2022/05/16 03:43:04;;;;;;;;;;;18.40;88.00;;;;;;5091244;28;20107;-71
2022/05/16 03:45:30;;;;;;;5.50;2.55;;;18.50;88.30;;;;;;5075535;28;19912;-72
2022/05/16 03:47:55;;;;;;;4.95;2.22;;;18.50;88.60;;;;;;5073633;28;20034;-72
2022/05/16 03:50:21;;;;;;;5.70;2.10;;;18.50;88.70;;;;;;5069175;28;20043;-72
2022/05/16 03:52:47;;;;;;;4.38;2.00;;;18.50;89.00;;;;;;5084583;28;20031;-71
2022/05/16 03:55:15;;;;;;;3.60;1.80;;;18.50;89.10;;;;;;5073918;28;20048;-71
2022/05/16 03:57:42;;;;;;;2.45;1.70;;;18.50;89.40;;;;;;5088040;28;20030;-71
2022/05/16 04:00:12;;;;;;;4.00;2.38;;;18.50;89.40;;;;;;5069686;28;20066;-71
2022/05/16 04:02:39;;;;;;;4.60;1.98;;;18.50;89.60;;;;;;5068332;28;20024;-71
2022/05/16 04:05:05;;;;;;;2.95;2.25;;;18.50;89.80;;;;;;5079115;28;20033;-72
2022/05/16 04:07:31;;;;;;;7.05;2.70;;;18.50;89.90;;;;;;5091675;28;20017;-71
2022/05/16 04:09:57;;;;;;;5.25;2.30;;;18.50;90.20;;;;;;5086613;28;20158;-71
2022/05/16 04:12:22;;;;;;;5.05;2.10;;;18.50;90.30;;;;;;5085442;28;20043;-71
2022/05/16 04:14:49;;;;;;;3.80;2.05;;;18.50;90.60;;;;;;5092656;28;20453;-72
2022/05/16 04:17:15;;;;;;;6.88;2.97;;;18.40;90.70;;;;;;5084206;28;20016;-72
2022/05/16 04:19:41;;;;;;;5.45;2.90;;;18.40;90.90;;;;;;5091999;28;20062;-72
2022/05/16 04:22:08;;;;;;;7.45;3.10;;;18.30;91.30;;;;;;5092048;28;20549;-72
2022/05/16 04:24:34;;;;;;;6.60;3.05;;;18.30;91.50;;;;;;5082942;28;20090;-72
2022/05/16 04:27:01;;;;;;;6.68;3.72;;;18.20;91.80;;;;;;5064071;28;20587;-72
2022/05/16 04:29:26;;;;;;;5.35;3.10;;;18.10;92.10;;;;;;5078390;28;20027;-72
2022/05/16 04:31:52;;;;;;;9.48;4.22;;;18.00;92.20;;;;;;5084077;28;20285;-73
2022/05/16 04:34:18;;;;;;;5.78;3.75;;;17.90;92.40;;;;;;5078500;28;20349;-73
2022/05/16 04:36:44;;;;;;;4.97;3.22;;;17.70;92.80;;;;;;5089821;28;20024;-72
2022/05/16 04:39:09;;;;;;;6.93;2.92;;;17.60;93.20;;;;;;5064130;28;20028;-72
2022/05/16 04:44:19;;;;;;;4.60;2.70;;;17.50;93.70;;;;;;5092879;28;20494;-72
2022/05/16 04:46:45;;;;;;;6.95;2.72;;;17.40;94.00;;;;;;5087055;28;20024;-73
2022/05/16 04:49:11;;;;;;;5.25;2.45;;;17.40;94.30;;;;;;5067196;28;20020;-72
2022/05/16 04:51:36;;;;;;;6.47;3.00;;;17.40;95.00;;;;;;5092985;28;20032;-72
2022/05/16 04:54:03;;;;;;;6.95;3.28;;;17.40;95.50;;;;;;5085924;28;20039;-72
2022/05/16 04:56:28;;;;;;;5.32;2.90;;;17.50;96.10;;;;;;5087214;28;20039;-72
2022/05/16 04:58:54;;;;;;;6.82;2.85;;;17.50;96.70;;;;;;5082476;28;20032;-72
2022/05/16 05:01:19;;;;;;;6.68;3.00;;;17.50;97.00;;;;;;5085735;28;20129;-73
2022/05/16 05:03:45;;;;;;;7.47;3.03;;;17.60;97.70;;;;;;5083045;28;20029;-73
2022/05/16 05:06:11;;;;;;;10.43;3.22;;;17.70;98.40;;;;;;5082236;28;20448;-73
2022/05/16 05:08:36;;;;;;;6.32;2.88;;;17.70;98.20;;;;;;5085729;28;20734;-73
2022/05/16 05:16:31;;;;;;;9.35;3.35;;;17.90;98.40;;;;;;5086568;28;20527;-72
2022/05/16 05:18:56;;;;;;;7.13;2.58;;;18.00;98.20;;;;;;5084502;28;20058;-72
2022/05/16 05:21:22;;;;;;;4.97;2.97;;;18.10;98.20;;;;;;5085740;28;20028;-73
2022/05/16 05:23:48;;;;;;;6.85;3.30;;;18.30;98.10;;;;;;5084961;28;20436;-73
2022/05/16 05:26:14;;;;;;;5.60;3.35;;;18.40;97.80;;;;;;5091172;28;20024;-73
2022/05/16 05:28:41;;;;;;;10.13;3.53;;;18.50;98.10;;;;;;5092097;28;20395;-72
2022/05/16 05:31:14;;;;;;;6.93;3.40;;;18.70;98.30;;;;;;5070846;28;20028;-70
2022/05/16 05:33:40;;;;;;;;;;;18.70;98.70;;;;;;5088302;28;20029;-70
2022/05/16 05:36:08;;;;;;;8.57;3.17;;;18.80;99.40;;;;;;5068915;28;19916;-69
2022/05/16 05:38:36;;;;;;;5.57;3.10;;;18.70;99.30;;;;;;5081739;28;20450;-69
2022/05/16 05:41:06;;;;;;;5.72;2.90;;;18.80;99.40;;;;;;5079713;28;20036;-70
2022/05/16 05:43:32;;;;;;;8.50;3.83;;;18.80;99.30;;;;;;5081940;28;20036;-70
2022/05/16 05:45:58;;;;;;;6.82;3.03;;;18.80;98.50;;;;;;5082792;28;20035;-69
2022/05/16 05:48:24;;;;;;;8.40;3.10;;;18.90;98.60;;;;;;5081050;28;20489;-70
2022/05/16 05:50:50;;;;;;;5.68;2.80;;;19.00;98.50;;;;;;5062662;28;20024;-70
2022/05/16 05:53:16;;;;;;;5.63;2.20;;;19.00;98.30;;;;;;5063334;28;20016;-68
2022/05/16 05:55:41;;;;;;;5.93;2.22;;;19.10;97.90;;;;;;5082378;28;20389;-67
2022/05/16 05:58:08;;;;;;;6.93;2.70;;;19.10;97.50;;;;;;5082655;28;20065;-72
2022/05/16 06:00:34;;;;;;;3.65;2.72;;;19.20;97.30;;;;;;5080557;28;20040;-70
2022/05/16 06:03:00;;;;;;;5.50;2.45;;;19.30;97.00;;;;;;5085381;28;20409;-71
2022/05/16 06:05:27;;;;;;;7.05;2.83;;;19.40;96.50;;;;;;5069692;28;20124;-70
2022/05/16 06:07:53;;;;;;;3.97;2.17;;;19.50;96.40;;;;;;5064145;28;20533;-70
2022/05/16 06:10:19;;;;;;;4.50;2.15;;;19.60;96.00;;;;;;5066181;28;20109;-71
2022/05/16 06:12:45;;;;;;;4.53;2.38;;;19.70;95.80;;;;;;5083932;28;20416;-69
2022/05/16 06:15:13;;;;;;;6.13;2.33;;;19.80;95.50;;;;;;5086465;28;20016;-70
2022/05/16 06:17:39;;;;;;;4.53;2.30;;;19.80;95.10;;;;;;5080707;28;20224;-71
2022/05/16 06:20:06;;;;;;;3.35;2.05;;;19.90;94.90;;;;;;5082818;28;20129;-70
2022/05/16 06:22:34;;;;;;;4.22;2.38;;;19.90;94.90;;;;;;5082098;28;20032;-67
2022/05/16 06:25:31;;;;;;;5.95;2.33;;;19.90;95.00;;;;;;5081127;28;20032;-76
2022/05/16 06:28:24;;;;;;;7.07;2.13;;;20.00;95.00;;;;;;5070445;28;20408;-75
2022/05/16 06:30:51;;;;;;;3.50;2.20;;;20.10;94.90;;;;;;5056699;28;20342;-70
2022/05/16 06:33:19;;;;;;;4.85;2.10;;;20.10;95.10;;;;;;5067826;28;20036;-70
2022/05/16 06:35:45;;;;;;;3.97;2.33;;;20.20;95.40;;;;;;5076664;28;20468;-69
2022/05/16 06:38:14;;;;;;;5.82;2.22;;;20.30;95.30;;;;;;5077852;28;20028;-69
2022/05/16 06:40:43;;;;;;;6.38;2.25;;;20.30;95.30;;;;;;5065501;28;20028;-70
2022/05/16 06:43:09;;;;;;;3.47;2.33;;;20.40;95.30;;;;;;5058596;28;20020;-70
2022/05/16 06:45:36;;;;;;;5.60;2.20;;;20.40;95.20;;;;;;5080009;28;20047;-69
2022/05/16 06:48:03;;;;;;;3.55;2.22;;;20.40;95.10;;;;;;5058815;28;20079;-70
2022/05/16 06:50:30;;;;;;;5.32;2.50;;;20.50;95.20;;;;;;5074744;28;20028;-69
2022/05/16 06:52:57;;;;;;;3.63;2.38;;;20.40;95.30;;;;;;5085035;28;20463;-70
2022/05/16 06:55:23;;;;;;;5.38;2.20;;;20.40;95.40;;;;;;5063029;28;20028;-70
2022/05/16 06:57:49;;;;;;;5.88;2.42;;;20.40;95.40;;;;;;5068868;28;20451;-68
2022/05/16 07:00:15;;;;;;;3.58;2.20;;;20.50;95.50;;;;;;5078090;28;20119;-69
2022/05/16 07:02:41;;;;;;;4.93;2.97;;;20.50;95.40;;;;;;5083382;28;20693;-68
2022/05/16 07:05:07;;;;;;;5.07;2.60;;;20.50;95.20;;;;;;5079764;28;20039;-69
2022/05/16 07:07:33;;;;;;;4.05;2.20;;;20.70;95.30;;;;;;5077235;28;20695;-74
2022/05/16 07:10:00;;;;;;;3.58;1.90;;;20.80;95.10;;;;;;5064282;28;20024;-72
2022/05/16 07:12:26;;;;;;;4.03;2.63;;;21.00;94.80;;;;;;5078049;28;20871;-72
2022/05/16 07:14:51;;;;;;;5.47;2.40;;;21.30;94.10;;;;;;5076874;28;20482;-68
2022/05/16 07:17:17;;;;;;;6.10;2.83;;;21.50;93.70;;;;;;5080169;28;20107;-69
2022/05/16 07:19:43;;;;;;;2.80;2.25;;;21.80;93.40;;;;;;5079590;28;20069;-74
2022/05/16 07:22:11;;;;;;;4.22;2.13;;;22.10;92.90;;;;;;5076252;28;20396;-68
2022/05/16 07:24:39;;;;;;;6.82;2.40;;;22.30;92.30;;;;;;5082863;28;20028;-67
2022/05/16 07:29:49;;;;;;;4.28;2.22;;;22.70;91.60;;;;;;5069734;28;20032;-69
2022/05/16 07:32:15;;;;;;;15.82;2.67;;;22.90;91.20;;;;;;5058794;28;20024;-70
2022/05/16 07:34:41;;;;;;;5.95;2.60;;;23.00;90.80;;;;;;5080795;28;20442;-68
2022/05/16 07:37:07;;;;;;;3.05;2.03;;;23.20;90.60;;;;;;5081526;28;20024;-68
2022/05/16 07:39:35;;;;;;;4.97;2.20;;;23.40;90.10;;;;;;5075708;28;20056;-67
2022/05/16 07:42:02;;;;;;;6.57;2.38;;;23.50;88.80;;;;;;5087859;28;20020;-75
2022/05/16 07:44:28;;;;;;;5.53;2.20;;;23.60;87.80;;;;;;5085971;28;20035;-74
2022/05/16 07:46:54;;;;;;;4.90;2.33;;;23.80;87.50;;;;;;5081105;28;20039;-74
2022/05/16 07:49:21;;;;;;;2.05;1.85;;;23.90;88.00;;;;;;5057020;28;20032;-73
2022/05/16 07:51:47;;;;;;;3.25;2.00;;;24.10;87.40;;;;;;5076897;28;20529;-75
2022/05/16 07:54:12;;;;;;;5.28;2.47;;;24.20;86.50;;;;;;5065307;28;20020;-74
2022/05/16 07:56:39;;;;;;;4.38;1.92;;;24.40;85.60;;;;;;5083641;28;20088;-72
2022/05/16 07:59:04;;;;;;;4.53;2.60;;;24.50;85.30;;;;;;5057460;28;20059;-73
2022/05/16 08:01:30;;;;;;;4.32;1.83;;;24.60;85.20;;;;;;5062724;28;20028;-73
2022/05/16 08:03:56;;;;;;;7.25;2.42;;;24.60;84.40;;;;;;5078496;28;20430;-73
2022/05/16 08:06:22;;;;;;;4.85;2.47;;;24.50;84.50;;;;;;5055118;28;20440;-74
2022/05/16 08:11:32;;;;;;;2.85;2.30;;;24.30;84.60;;;;;;5078965;28;20066;-74
2022/05/16 08:13:58;;;;;;;7.38;2.20;;;24.20;84.80;;;;;;5083634;28;20044;-74
2022/05/16 08:16:23;;;;;;;4.63;2.35;;;24.10;85.30;;;;;;5088593;28;20095;-74
2022/05/16 08:18:49;;;;;;;2.40;1.90;;;24.10;85.50;;;;;;5088103;28;20042;-74
2022/05/16 08:21:15;;;;;;;3.50;2.03;;;24.00;85.20;;;;;;5067370;28;20032;-75
2022/05/16 08:23:41;;;;;;;3.30;2.20;;;24.10;85.30;;;;;;5086328;28;20215;-74
2022/05/16 08:26:07;;;;;;;4.50;1.98;;;24.10;84.90;;;;;;5068084;28;20106;-73
2022/05/16 08:28:33;;;;;;;6.47;2.33;;;24.10;84.30;;;;;;5069773;28;20126;-75
2022/05/16 08:31:00;;;;;;;4.07;2.22;;;24.10;84.30;;;;;;5066301;28;20028;-75
2022/05/16 08:33:28;;;;;;;3.88;1.88;;;24.10;84.30;;;;;;5086194;28;20024;-75
2022/05/16 08:41:30;;;;;;;4.30;2.33;;;24.00;85.30;;;;;;5083842;28;20888;-74
2022/05/16 08:44:24;;;;;;;2.93;1.70;;;24.00;84.70;;;;;;5088052;28;20509;-74
2022/05/16 08:47:16;;;;;;;5.95;2.10;;;23.90;85.00;;;;;;5088005;28;20162;-72
2022/05/16 08:49:47;;;;;;;5.75;2.80;;;23.80;84.90;;;;;;5043109;28;20437;-74
2022/05/16 08:52:40;;;;;;;5.70;2.60;;;23.80;85.30;;;;;;5088880;28;20427;-68
2022/05/16 08:55:22;;;;;;;3.17;2.05;;;23.80;86.20;;;;;;5083645;28;20023;-74
2022/05/16 08:58:09;;;;;;;4.22;2.22;;;23.70;85.30;;;;;;5066216;28;20032;-74
2022/05/16 09:00:51;;;;;;;2.90;2.35;;;23.60;85.80;;;;;;5082961;28;20810;-74
2022/05/16 09:03:46;;;;;;;6.32;2.75;;;23.60;86.30;;;;;;5069375;28;20116;-74
2022/05/16 09:06:17;;;;;;;3.58;2.40;;;23.60;86.40;;;;;;5068404;28;20041;-68
2022/05/16 09:08:58;;;;;;;3.72;2.20;;;23.70;86.20;;;;;;5083482;28;20019;-69
2022/05/16 09:11:29;;;;;;;3.05;2.15;;;23.80;85.90;;;;;;5088149;28;20419;-69
2022/05/16 09:14:05;;;;;;;4.68;2.38;;;23.90;86.00;;;;;;5082846;28;20035;-69
2022/05/16 09:16:43;;;;;;;9.48;2.58;;;24.00;86.00;;;;;;5073555;28;20111;-68
2022/05/16 09:19:23;;;;;;;4.20;2.42;;;24.10;86.20;;;;;;5074900;28;20032;-68
2022/05/16 09:22:03;;;;;;;6.25;2.40;;;24.20;86.50;;;;;;5069021;28;20064;-68
2022/05/16 09:24:38;;;;;;;4.65;2.75;;;24.20;86.30;;;;;;5082392;28;20059;-69
2022/05/16 09:28:34;;;;;;;4.35;2.58;;;24.30;86.40;;;;;;5087997;28;20419;-68
2022/05/16 09:30:07;;;;;;;3.70;2.42;;;24.30;86.80;;;;;;5089687;28;20036;-69
2022/05/16 09:32:38;;;;;;;4.90;2.42;;;24.30;87.30;;;;;;5080206;28;20024;-69
2022/05/16 09:35:12;;;;;;;3.75;2.50;;;24.30;87.50;;;;;;5087945;28;20024;-70
2022/05/16 09:37:38;;;;;;;5.22;2.92;;;24.30;87.80;;;;;;5067904;28;20036;-69
2022/05/16 09:40:04;;;;;;;4.90;2.78;;;24.40;88.20;;;;;;5082292;28;20035;-68
2022/05/16 09:42:34;;;;;;;4.65;2.65;;;24.40;88.20;;;;;;5087137;28;20064;-69
2022/05/16 09:45:04;;;;;;;3.17;2.33;;;24.50;88.50;;;;;;5088399;28;20062;-69
2022/05/16 09:47:30;;;;;;;3.25;2.40;;;24.50;88.50;;;;;;5062753;28;20028;-69
2022/05/16 09:50:20;;;;;;;4.10;2.78;;;24.40;88.80;;;;;;5065402;28;20028;-69
2022/05/16 09:52:50;;;;;;;4.43;2.47;;;24.40;88.90;;;;;;5084384;28;20048;-69
2022/05/16 09:55:35;;;;;;;5.93;3.42;;;24.40;89.40;;;;;;5080834;28;20028;-69
2022/05/16 09:58:19;;;;;;;4.07;3.00;;;24.40;89.60;;;;;;5068142;28;20020;-68
2022/05/16 10:00:55;;;;;;;5.78;2.72;;;24.40;90.10;;;;;;5079990;28;20032;-69
2022/05/16 10:03:27;;;;;;;5.03;3.47;;;24.30;90.30;;;;;;5082656;28;20024;-69
2022/05/16 10:05:54;;;;;;;5.05;2.70;;;24.10;90.50;;;;;;5066637;28;20035;-69
2022/05/16 10:08:27;;;;;;;4.97;3.10;;;24.10;90.90;;;;;;5087618;28;20020;-68
2022/05/16 10:10:55;;;;;;;6.57;2.72;;;23.90;90.90;;;;;;5063619;28;20506;-68
2022/05/16 10:13:22;;;;;;;4.35;3.05;;;23.90;91.00;;;;;;5084441;28;20019;-69
2022/05/16 10:15:52;;;;;;;4.53;2.85;;;23.90;91.00;;;;;;5088614;28;20034;-68
2022/05/16 10:18:20;;;;;;;4.90;3.22;;;23.90;91.20;;;;;;5080617;28;20085;-67
2022/05/16 10:21:09;;;;;;;9.57;3.72;;;24.00;91.00;;;;;;5078115;28;20388;-67
2022/05/16 10:23:39;;;;;;;9.02;4.05;;;24.00;90.30;;;;;;5058196;28;20032;-67
2022/05/16 10:26:14;;;;;;;8.23;3.88;;;24.10;89.20;;;;;;5082578;28;20032;-68
2022/05/16 10:28:49;;;;;;;9.02;3.45;;;24.20;87.30;;;;;;5082286;28;20155;-67
2022/05/16 10:34:22;;;;;;;8.00;4.00;;;24.10;83.90;;;;;;5021147;28;20033;-67
2022/05/16 10:36:53;;;;;;;8.30;3.95;;;24.10;83.80;;;;;;5075214;28;20048;-68
2022/05/16 10:39:27;;;;;;;7.93;3.60;;;24.10;84.00;;;;;;5082444;28;20063;-68
2022/05/16 10:42:11;;;;;;;10.35;4.05;;;23.90;83.70;;;;;;5081492;28;20016;-68
2022/05/16 10:44:47;;;;;;;7.70;3.97;;;23.80;83.60;;;;;;5080334;28;20534;-68
2022/05/16 10:47:15;;;;;;;6.20;3.53;;;23.70;84.00;;;;;;5051117;28;20552;-67
2022/05/16 10:50:07;;;;;;;8.80;3.90;;;23.60;84.30;;;;;;5077469;28;20024;-68
2022/05/16 10:52:44;;;;;;;6.38;3.83;;;23.50;84.40;;;;;;5055585;28;20480;-67
2022/05/16 10:55:10;;;;;;;7.65;3.97;;;23.40;85.40;;;;;;5076928;28;20116;-68
2022/05/16 10:58:01;;;;;;;10.10;4.38;;;23.30;85.30;;;;;;5062370;28;20031;-68
2022/05/16 11:01:08;;;;;;;12.07;4.70;;;23.20;86.00;;;;;;5087082;28;20032;-69
2022/05/16 11:03:45;;;;;;;9.80;4.47;;;23.10;90.40;;;;;;5066684;28;20036;-69
2022/05/16 11:06:26;;;;;;;18.48;6.65;;;22.90;91.20;;;;;;5081616;28;20032;-69
2022/05/16 11:09:19;;;;;;;11.38;5.45;;;22.70;96.50;;;;;;5082857;28;20036;-68
2022/05/16 11:12:12;;;;;;;9.73;4.70;;;22.50;97.00;;;;;;5080419;28;20024;-68
2022/05/16 11:14:52;;;;;;;8.52;4.60;;;22.30;97.40;;;;;;5051402;28;20715;-66
2022/05/16 11:17:21;;;;;;;10.00;4.40;;;22.10;98.80;;;;;;5088579;28;20095;-66
2022/05/16 11:20:05;;;;;;;8.35;3.75;;;21.80;98.90;;;;;;5061089;28;20631;-67
2022/05/16 11:22:56;;;;;;;9.18;3.97;;;21.40;99.90;;;;;;5079758;28;20024;-67
2022/05/16 11:25:50;;;;;;;15.05;4.47;;;21.00;99.90;;;;;;5084452;28;20024;-67
2022/05/16 11:28:20;;;;;;;16.17;4.32;;;20.60;99.90;;;;;;5079160;28;20481;-66
2022/05/16 11:30:46;;;;;;;7.50;4.38;;;20.10;99.90;;;;;;5081874;28;20027;-67
2022/05/16 11:33:32;;;;;;;9.57;4.65;;;19.60;99.90;;;;;;5078654;28;20155;-67
2022/05/16 11:36:34;;;;;;;10.93;3.35;;;19.10;99.90;;;;;;5072191;28;20035;-68
2022/05/16 11:39:03;;;;;;;10.20;4.00;;;18.80;99.90;;;;;;5044390;28;20093;-69
2022/05/16 11:41:48;;;;;;;15.80;4.00;;;18.60;99.90;;;;;;5069155;28;20037;-69
2022/05/16 11:44:31;;;;;;;11.32;4.82;;;18.50;99.90;;;;;;5077610;28;20035;-68
2022/05/16 11:47:06;;;;;;;8.52;4.03;;;18.60;99.90;;;;;;5073200;28;20039;-68
2022/05/16 11:49:31;;;;;;;8.05;4.10;;;18.50;99.90;;;;;;5076151;28;20492;-67
2022/05/16 11:52:35;;;;;;;10.80;4.72;;;18.50;99.90;;;;;;5071853;28;20077;-68
2022/05/16 12:00:31;;;;;;;10.57;4.85;;;18.60;99.90;;;;;;5069684;28;20051;-68
2022/05/16 12:00:53;;;;;;;9.38;4.13;;;18.60;99.90;;;;;;5081801;28;20062;-68
2022/05/16 12:03:21;;;;;;;7.32;3.65;;;18.70;99.90;;;;;;5081083;28;20720;-68
2022/05/16 12:05:48;;;;;;;6.30;3.80;;;18.80;99.90;;;;;;5084996;28;20453;-69
2022/05/16 12:08:31;;;;;;;8.55;3.92;;;18.90;99.90;;;;;;5064442;28;20476;-69
2022/05/16 12:11:02;;;;;;;8.45;3.75;;;19.00;99.90;;;;;;5080152;28;20627;-70
2022/05/16 12:13:33;;;;;;;8.00;4.32;;;19.20;99.90;;;;;;5069303;28;20029;-70
2022/05/16 12:16:16;;;;;;;7.07;4.10;;;19.30;99.90;;;;;;5080680;28;20020;-71
2022/05/16 12:18:49;;;;;;;11.00;3.45;;;19.40;99.90;;;;;;5079356;28;20120;-69
2022/05/16 12:21:32;;;;;;;9.45;3.72;;;19.50;99.90;;;;;;5078055;28;20037;-70
2022/05/16 12:24:01;;;;;;;10.35;3.85;;;19.60;99.90;;;;;;5077484;28;20029;-70
2022/05/16 12:26:26;;;;;;;11.13;3.95;;;19.70;99.90;;;;;;5065940;28;20036;-70
2022/05/16 12:29:20;;;;;;;8.65;3.42;;;19.90;99.90;;;;;;5083939;28;20020;-68
2022/05/16 12:31:45;;;;;;;8.00;3.85;;;20.20;99.90;;;;;;5070090;28;20068;-71
2022/05/16 12:34:12;;;;;;;6.00;2.63;;;20.30;99.90;;;;;;5068959;28;20497;-70
2022/05/16 12:36:39;;;;;;;7.55;3.05;;;20.50;99.90;;;;;;5083188;28;20510;-70
2022/05/16 12:39:27;;;;;;;5.57;2.83;;;20.60;99.90;;;;;;5064563;28;20074;-69
2022/05/16 12:42:12;;;;;;;6.15;3.30;;;20.80;99.90;;;;;;5083001;28;20031;-69
2022/05/16 12:44:56;;;;;;;8.48;3.22;;;21.00;99.90;;;;;;5088392;28;20097;-69
2022/05/16 12:47:41;;;;;;;8.18;2.88;;;21.00;99.90;;;;;;5086894;28;20042;-69
2022/05/16 12:50:21;;;;;;;5.93;2.92;;;21.20;99.90;;;;;;5061950;28;20119;-73
2022/05/16 12:53:22;;;;;;;10.07;3.00;;;21.30;99.90;;;;;;5087149;28;20095;-73
2022/05/16 12:56:07;;;;;;;8.85;3.35;;;21.50;99.90;;;;;;5074905;28;20029;-71
2022/05/16 12:58:51;;;;;;;8.52;3.38;;;21.50;99.90;;;;;;5085821;28;20039;-72
2022/05/16 13:01:54;;;;;;;9.07;3.30;;;21.50;99.90;;;;;;5069290;28;20966;-70
2022/05/16 13:04:47;;;;;;;6.75;2.85;;;21.70;99.90;;;;;;5002201;28;20071;-69
2022/05/16 13:07:21;;;;;;;10.05;3.13;;;21.70;99.90;;;;;;5086303;28;20031;-71
2022/05/16 13:10:06;;;;;;;6.32;2.33;;;21.90;99.90;;;;;;5088632;28;20464;-70
2022/05/16 13:12:53;;;;;;;8.20;2.90;;;22.10;99.90;;;;;;5081674;28;20034;-70
2022/05/16 13:15:53;;;;;;;8.95;3.42;;;22.00;99.90;;;;;;5089723;28;20051;-71
2022/05/16 13:18:25;;;;;;;6.50;2.72;;;21.80;99.90;;;;;;5070914;28;20043;-71
2022/05/16 13:20:54;;;;;;;18.17;3.42;;;22.00;99.90;;;;;;5074885;28;20029;-69
2022/05/16 13:23:20;;;;;;;7.35;3.00;;;22.10;99.90;;;;;;5080057;28;20533;-69
2022/05/16 13:31:33;;;;;;;7.38;2.70;;;22.10;99.90;;;;;;5086384;28;20107;-71
2022/05/16 13:34:00;;;;;;;6.85;2.83;;;22.10;99.90;;;;;;5066224;28;20081;-70
2022/05/16 13:36:26;;;;;;;6.05;2.97;;;22.10;99.90;;;;;;5063488;28;20036;-70
2022/05/16 13:38:54;;;;;;;4.35;2.90;;;22.10;99.90;;;;;;5080980;28;20031;-71
2022/05/16 13:41:25;;;;;;;6.75;3.00;;;21.90;99.90;;;;;;5088510;28;20095;-71
2022/05/16 13:43:52;;;;;;;7.63;3.17;;;21.80;99.90;;;;;;5086518;28;20051;-71
2022/05/16 13:46:18;;;;;;;5.88;3.13;;;21.80;99.90;;;;;;5085641;28;20031;-70
2022/05/16 13:48:44;;;;;;;11.23;3.47;;;21.80;99.90;;;;;;5065346;28;20035;-69